sensor_id;sensor_type;location;lat;lon;timestamp;P1;durP1;ratioP1;P2;durP2;ratioP2
20065;SDS011;10193;48.884;9.182;2023-02-11T00:00:41;13.93;;;11.33;;
20065;SDS011;10193;48.884;9.182;2023-02-11T00:03:08;15.33;;;11.70;;
20065;SDS011;10193;48.884;9.182;2023-02-11T00:05:35;16.60;;;12.40;;
20065;SDS011;10193;48.884;9.182;2023-02-11T00:08:02;15.90;;;11.97;;
20065;SDS011;10193;48.884;9.182;2023-02-11T00:10:30;17.17;;;11.97;;
20065;SDS011;10193;48.884;9.182;2023-02-11T00:12:57;15.33;;;10.93;;
20065;SDS011;10193;48.884;9.182;2023-02-11T00:15:23;16.63;;;11.27;;
20065;SDS011;10193;48.884;9.182;2023-02-11T00:17:50;17.40;;;12.40;;
20065;SDS011;10193;48.884;9.182;2023-02-11T00:20:17;15.27;;;11.80;;
20065;SDS011;10193;48.884;9.182;2023-02-11T00:22:44;16.07;;;12.50;;
20065;SDS011;10193;48.884;9.182;2023-02-11T00:25:10;16.30;;;12.30;;
20065;SDS011;10193;48.884;9.182;2023-02-11T00:27:38;18.63;;;12.93;;
20065;SDS011;10193;48.884;9.182;2023-02-11T00:30:05;17.07;;;12.60;;
20065;SDS011;10193;48.884;9.182;2023-02-11T00:32:33;18.30;;;12.40;;
20065;SDS011;10193;48.884;9.182;2023-02-11T00:34:59;16.53;;;12.40;;
20065;SDS011;10193;48.884;9.182;2023-02-11T00:37:26;17.93;;;12.77;;
20065;SDS011;10193;48.884;9.182;2023-02-11T00:39:53;18.63;;;13.33;;
20065;SDS011;10193;48.884;9.182;2023-02-11T00:42:20;17.40;;;12.23;;
20065;SDS011;10193;48.884;9.182;2023-02-11T00:44:48;15.93;;;12.93;;
20065;SDS011;10193;48.884;9.182;2023-02-11T00:47:14;18.70;;;13.40;;
20065;SDS011;10193;48.884;9.182;2023-02-11T00:49:41;18.23;;;13.73;;
20065;SDS011;10193;48.884;9.182;2023-02-11T00:52:07;16.33;;;12.40;;
20065;SDS011;10193;48.884;9.182;2023-02-11T00:54:34;18.20;;;13.73;;
20065;SDS011;10193;48.884;9.182;2023-02-11T00:57:01;18.07;;;13.33;;
20065;SDS011;10193;48.884;9.182;2023-02-11T00:59:27;19.43;;;13.93;;
20065;SDS011;10193;48.884;9.182;2023-02-11T01:01:55;17.60;;;12.87;;
20065;SDS011;10193;48.884;9.182;2023-02-11T01:04:22;19.33;;;13.87;;
20065;SDS011;10193;48.884;9.182;2023-02-11T01:06:49;20.70;;;14.97;;
20065;SDS011;10193;48.884;9.182;2023-02-11T01:09:15;17.63;;;13.20;;
20065;SDS011;10193;48.884;9.182;2023-02-11T01:11:42;19.90;;;14.60;;
20065;SDS011;10193;48.884;9.182;2023-02-11T01:14:09;19.27;;;14.10;;
20065;SDS011;10193;48.884;9.182;2023-02-11T01:16:36;18.20;;;13.73;;
20065;SDS011;10193;48.884;9.182;2023-02-11T01:19:04;19.00;;;14.47;;
20065;SDS011;10193;48.884;9.182;2023-02-11T01:21:30;22.40;;;15.47;;
20065;SDS011;10193;48.884;9.182;2023-02-11T01:23:57;21.10;;;15.23;;
20065;SDS011;10193;48.884;9.182;2023-02-11T01:26:24;22.10;;;15.40;;
20065;SDS011;10193;48.884;9.182;2023-02-11T01:28:50;21.67;;;15.37;;
20065;SDS011;10193;48.884;9.182;2023-02-11T01:31:17;19.20;;;14.93;;
20065;SDS011;10193;48.884;9.182;2023-02-11T01:33:44;19.53;;;13.93;;
20065;SDS011;10193;48.884;9.182;2023-02-11T01:36:12;20.63;;;14.20;;
20065;SDS011;10193;48.884;9.182;2023-02-11T01:38:38;19.17;;;13.80;;
20065;SDS011;10193;48.884;9.182;2023-02-11T01:41:06;18.60;;;14.17;;
20065;SDS011;10193;48.884;9.182;2023-02-11T01:43:36;21.07;;;14.80;;
20065;SDS011;10193;48.884;9.182;2023-02-11T01:46:11;18.40;;;13.80;;
20065;SDS011;10193;48.884;9.182;2023-02-11T01:48:44;19.03;;;13.67;;
20065;SDS011;10193;48.884;9.182;2023-02-11T01:51:14;18.33;;;13.60;;
20065;SDS011;10193;48.884;9.182;2023-02-11T01:53:45;19.77;;;13.90;;
20065;SDS011;10193;48.884;9.182;2023-02-11T01:56:32;16.53;;;12.63;;
20065;SDS011;10193;48.884;9.182;2023-02-11T01:59:21;21.17;;;15.13;;
20065;SDS011;10193;48.884;9.182;2023-02-11T02:01:55;20.80;;;15.10;;
20065;SDS011;10193;48.884;9.182;2023-02-11T02:04:26;20.90;;;14.70;;
20065;SDS011;10193;48.884;9.182;2023-02-11T02:07:00;21.13;;;15.67;;
20065;SDS011;10193;48.884;9.182;2023-02-11T02:09:33;21.67;;;15.33;;
20065;SDS011;10193;48.884;9.182;2023-02-11T02:12:05;17.97;;;14.37;;
20065;SDS011;10193;48.884;9.182;2023-02-11T02:14:32;19.63;;;15.23;;
20065;SDS011;10193;48.884;9.182;2023-02-11T02:16:58;19.50;;;15.23;;
20065;SDS011;10193;48.884;9.182;2023-02-11T02:19:38;19.47;;;15.43;;
20065;SDS011;10193;48.884;9.182;2023-02-11T02:22:29;18.70;;;14.50;;
20065;SDS011;10193;48.884;9.182;2023-02-11T02:25:20;20.17;;;14.17;;
20065;SDS011;10193;48.884;9.182;2023-02-11T02:28:03;18.90;;;14.50;;
20065;SDS011;10193;48.884;9.182;2023-02-11T02:30:49;19.93;;;15.03;;
20065;SDS011;10193;48.884;9.182;2023-02-11T02:33:33;18.60;;;14.17;;
20065;SDS011;10193;48.884;9.182;2023-02-11T02:36:11;17.73;;;14.03;;
20065;SDS011;10193;48.884;9.182;2023-02-11T02:38:45;18.40;;;13.80;;
20065;SDS011;10193;48.884;9.182;2023-02-11T02:41:18;18.90;;;13.80;;
20065;SDS011;10193;48.884;9.182;2023-02-11T02:43:49;18.13;;;13.90;;
20065;SDS011;10193;48.884;9.182;2023-02-11T02:46:18;20.63;;;14.60;;
20065;SDS011;10193;48.884;9.182;2023-02-11T02:48:49;18.27;;;13.77;;
20065;SDS011;10193;48.884;9.182;2023-02-11T02:51:24;17.07;;;13.53;;
20065;SDS011;10193;48.884;9.182;2023-02-11T02:54:06;18.17;;;13.30;;
20065;SDS011;10193;48.884;9.182;2023-02-11T02:56:50;17.43;;;13.53;;
20065;SDS011;10193;48.884;9.182;2023-02-11T02:59:26;16.93;;;13.37;;
20065;SDS011;10193;48.884;9.182;2023-02-11T03:02:05;19.93;;;13.33;;
20065;SDS011;10193;48.884;9.182;2023-02-11T03:04:43;18.13;;;13.50;;
20065;SDS011;10193;48.884;9.182;2023-02-11T03:07:18;16.37;;;13.07;;
20065;SDS011;10193;48.884;9.182;2023-02-11T03:09:49;18.13;;;13.40;;
20065;SDS011;10193;48.884;9.182;2023-02-11T03:12:19;19.60;;;13.80;;
20065;SDS011;10193;48.884;9.182;2023-02-11T03:14:47;18.57;;;13.80;;
20065;SDS011;10193;48.884;9.182;2023-02-11T03:17:16;18.07;;;13.83;;
20065;SDS011;10193;48.884;9.182;2023-02-11T03:19:45;18.03;;;13.90;;
20065;SDS011;10193;48.884;9.182;2023-02-11T03:22:15;18.93;;;13.53;;
20065;SDS011;10193;48.884;9.182;2023-02-11T03:24:45;17.97;;;13.60;;
20065;SDS011;10193;48.884;9.182;2023-02-11T03:27:14;18.10;;;13.73;;
20065;SDS011;10193;48.884;9.182;2023-02-11T03:29:47;18.70;;;14.07;;
20065;SDS011;10193;48.884;9.182;2023-02-11T03:32:19;19.17;;;14.60;;
20065;SDS011;10193;48.884;9.182;2023-02-11T03:34:53;18.43;;;14.47;;
20065;SDS011;10193;48.884;9.182;2023-02-11T03:37:23;19.40;;;14.47;;
20065;SDS011;10193;48.884;9.182;2023-02-11T03:39:54;20.10;;;13.50;;
20065;SDS011;10193;48.884;9.182;2023-02-11T03:42:26;17.60;;;13.30;;
20065;SDS011;10193;48.884;9.182;2023-02-11T03:44:57;19.17;;;14.23;;
20065;SDS011;10193;48.884;9.182;2023-02-11T03:47:29;17.20;;;13.67;;
20065;SDS011;10193;48.884;9.182;2023-02-11T03:49:59;19.47;;;13.97;;
20065;SDS011;10193;48.884;9.182;2023-02-11T03:52:29;17.93;;;13.60;;
20065;SDS011;10193;48.884;9.182;2023-02-11T03:54:57;18.10;;;13.43;;
20065;SDS011;10193;48.884;9.182;2023-02-11T03:57:28;17.23;;;13.37;;
20065;SDS011;10193;48.884;9.182;2023-02-11T03:59:55;19.13;;;13.97;;
20065;SDS011;10193;48.884;9.182;2023-02-11T04:02:23;18.77;;;14.20;;
20065;SDS011;10193;48.884;9.182;2023-02-11T04:04:53;18.27;;;14.23;;
20065;SDS011;10193;48.884;9.182;2023-02-11T04:07:21;18.00;;;13.97;;
20065;SDS011;10193;48.884;9.182;2023-02-11T04:09:47;19.07;;;14.87;;
20065;SDS011;10193;48.884;9.182;2023-02-11T04:12:14;18.13;;;14.33;;
20065;SDS011;10193;48.884;9.182;2023-02-11T04:14:41;18.87;;;14.97;;
20065;SDS011;10193;48.884;9.182;2023-02-11T04:17:08;17.30;;;13.83;;
20065;SDS011;10193;48.884;9.182;2023-02-11T04:19:35;19.47;;;15.07;;
20065;SDS011;10193;48.884;9.182;2023-02-11T04:22:02;20.23;;;15.90;;
20065;SDS011;10193;48.884;9.182;2023-02-11T04:24:30;20.10;;;15.13;;
20065;SDS011;10193;48.884;9.182;2023-02-11T04:26:57;18.33;;;14.40;;
20065;SDS011;10193;48.884;9.182;2023-02-11T04:29:24;19.17;;;14.70;;
20065;SDS011;10193;48.884;9.182;2023-02-11T04:31:50;18.47;;;14.70;;
20065;SDS011;10193;48.884;9.182;2023-02-11T04:34:17;20.30;;;15.80;;
20065;SDS011;10193;48.884;9.182;2023-02-11T04:36:43;20.13;;;15.73;;
20065;SDS011;10193;48.884;9.182;2023-02-11T04:39:10;19.53;;;15.03;;
20065;SDS011;10193;48.884;9.182;2023-02-11T04:41:38;19.40;;;14.90;;
20065;SDS011;10193;48.884;9.182;2023-02-11T04:44:05;18.90;;;14.73;;
20065;SDS011;10193;48.884;9.182;2023-02-11T04:46:31;17.97;;;14.20;;
20065;SDS011;10193;48.884;9.182;2023-02-11T04:48:58;18.60;;;14.40;;
20065;SDS011;10193;48.884;9.182;2023-02-11T04:51:25;16.43;;;13.67;;
20065;SDS011;10193;48.884;9.182;2023-02-11T04:53:51;18.30;;;14.20;;
20065;SDS011;10193;48.884;9.182;2023-02-11T04:56:18;17.17;;;13.80;;
20065;SDS011;10193;48.884;9.182;2023-02-11T04:58:46;19.60;;;15.00;;
20065;SDS011;10193;48.884;9.182;2023-02-11T05:01:14;18.97;;;15.50;;
20065;SDS011;10193;48.884;9.182;2023-02-11T05:03:41;19.30;;;14.70;;
20065;SDS011;10193;48.884;9.182;2023-02-11T05:06:08;17.10;;;14.70;;
20065;SDS011;10193;48.884;9.182;2023-02-11T05:08:36;17.57;;;13.87;;
20065;SDS011;10193;48.884;9.182;2023-02-11T05:11:03;20.00;;;14.67;;
20065;SDS011;10193;48.884;9.182;2023-02-11T05:13:30;18.27;;;14.17;;
20065;SDS011;10193;48.884;9.182;2023-02-11T05:15:58;16.77;;;13.90;;
20065;SDS011;10193;48.884;9.182;2023-02-11T05:18:25;18.07;;;13.93;;
20065;SDS011;10193;48.884;9.182;2023-02-11T05:20:51;16.93;;;13.90;;
20065;SDS011;10193;48.884;9.182;2023-02-11T05:23:18;19.23;;;14.50;;
20065;SDS011;10193;48.884;9.182;2023-02-11T05:25:45;18.73;;;15.17;;
20065;SDS011;10193;48.884;9.182;2023-02-11T05:28:11;19.37;;;15.83;;
20065;SDS011;10193;48.884;9.182;2023-02-11T05:30:38;22.53;;;16.40;;
20065;SDS011;10193;48.884;9.182;2023-02-11T05:33:06;19.30;;;15.70;;
20065;SDS011;10193;48.884;9.182;2023-02-11T05:35:32;20.67;;;16.40;;
20065;SDS011;10193;48.884;9.182;2023-02-11T05:37:59;18.20;;;15.00;;
20065;SDS011;10193;48.884;9.182;2023-02-11T05:40:26;17.60;;;15.17;;
20065;SDS011;10193;48.884;9.182;2023-02-11T05:42:52;18.73;;;15.33;;
20065;SDS011;10193;48.884;9.182;2023-02-11T05:45:19;20.50;;;16.10;;
20065;SDS011;10193;48.884;9.182;2023-02-11T05:47:46;18.97;;;15.27;;
20065;SDS011;10193;48.884;9.182;2023-02-11T05:50:14;18.97;;;15.20;;
20065;SDS011;10193;48.884;9.182;2023-02-11T05:52:40;18.07;;;14.70;;
20065;SDS011;10193;48.884;9.182;2023-02-11T05:55:07;19.53;;;15.23;;
20065;SDS011;10193;48.884;9.182;2023-02-11T05:57:34;20.23;;;15.67;;
20065;SDS011;10193;48.884;9.182;2023-02-11T06:00:00;19.93;;;15.87;;
20065;SDS011;10193;48.884;9.182;2023-02-11T06:02:28;19.90;;;15.53;;
20065;SDS011;10193;48.884;9.182;2023-02-11T06:04:55;19.03;;;15.67;;
20065;SDS011;10193;48.884;9.182;2023-02-11T06:07:23;20.73;;;15.73;;
20065;SDS011;10193;48.884;9.182;2023-02-11T06:09:49;19.70;;;15.03;;
20065;SDS011;10193;48.884;9.182;2023-02-11T06:12:16;19.60;;;15.10;;
20065;SDS011;10193;48.884;9.182;2023-02-11T06:14:43;18.10;;;14.77;;
20065;SDS011;10193;48.884;9.182;2023-02-11T06:17:10;18.30;;;14.97;;
20065;SDS011;10193;48.884;9.182;2023-02-11T06:19:37;17.00;;;14.47;;
20065;SDS011;10193;48.884;9.182;2023-02-11T06:22:03;19.80;;;14.97;;
20065;SDS011;10193;48.884;9.182;2023-02-11T06:24:31;20.37;;;15.13;;
20065;SDS011;10193;48.884;9.182;2023-02-11T06:26:58;20.20;;;15.30;;
20065;SDS011;10193;48.884;9.182;2023-02-11T06:29:25;18.33;;;15.47;;
20065;SDS011;10193;48.884;9.182;2023-02-11T06:31:51;18.77;;;14.97;;
20065;SDS011;10193;48.884;9.182;2023-02-11T06:34:18;18.73;;;16.10;;
20065;SDS011;10193;48.884;9.182;2023-02-11T06:36:44;20.63;;;15.93;;
20065;SDS011;10193;48.884;9.182;2023-02-11T06:39:11;19.50;;;15.33;;
20065;SDS011;10193;48.884;9.182;2023-02-11T06:41:39;19.20;;;15.40;;
20065;SDS011;10193;48.884;9.182;2023-02-11T06:44:06;20.33;;;15.83;;
20065;SDS011;10193;48.884;9.182;2023-02-11T06:46:33;20.77;;;15.63;;
20065;SDS011;10193;48.884;9.182;2023-02-11T06:48:59;18.20;;;14.80;;
20065;SDS011;10193;48.884;9.182;2023-02-11T06:51:26;16.93;;;15.03;;
20065;SDS011;10193;48.884;9.182;2023-02-11T06:53:53;19.87;;;15.07;;
20065;SDS011;10193;48.884;9.182;2023-02-11T06:56:21;23.73;;;17.67;;
20065;SDS011;10193;48.884;9.182;2023-02-11T06:58:52;24.00;;;19.07;;
20065;SDS011;10193;48.884;9.182;2023-02-11T07:01:19;21.27;;;16.87;;
20065;SDS011;10193;48.884;9.182;2023-02-11T07:03:47;20.43;;;16.43;;
20065;SDS011;10193;48.884;9.182;2023-02-11T07:06:15;18.93;;;15.50;;
20065;SDS011;10193;48.884;9.182;2023-02-11T07:08:43;18.00;;;14.70;;
20065;SDS011;10193;48.884;9.182;2023-02-11T07:11:10;20.43;;;16.17;;
20065;SDS011;10193;48.884;9.182;2023-02-11T07:13:38;20.20;;;15.67;;
20065;SDS011;10193;48.884;9.182;2023-02-11T07:16:06;19.73;;;15.70;;
20065;SDS011;10193;48.884;9.182;2023-02-11T07:18:34;17.20;;;14.23;;
20065;SDS011;10193;48.884;9.182;2023-02-11T07:21:03;19.10;;;14.97;;
20065;SDS011;10193;48.884;9.182;2023-02-11T07:23:30;16.73;;;14.47;;
20065;SDS011;10193;48.884;9.182;2023-02-11T07:25:57;16.50;;;13.93;;
20065;SDS011;10193;48.884;9.182;2023-02-11T07:28:24;17.80;;;14.73;;
20065;SDS011;10193;48.884;9.182;2023-02-11T07:30:50;18.03;;;15.10;;
20065;SDS011;10193;48.884;9.182;2023-02-11T07:33:18;17.30;;;14.60;;
20065;SDS011;10193;48.884;9.182;2023-02-11T07:35:45;18.57;;;15.60;;
20065;SDS011;10193;48.884;9.182;2023-02-11T07:38:12;17.00;;;14.80;;
20065;SDS011;10193;48.884;9.182;2023-02-11T07:40:39;18.53;;;14.80;;
20065;SDS011;10193;48.884;9.182;2023-02-11T07:43:07;17.30;;;14.70;;
20065;SDS011;10193;48.884;9.182;2023-02-11T07:45:33;16.73;;;14.13;;
20065;SDS011;10193;48.884;9.182;2023-02-11T07:48:03;17.47;;;14.10;;
20065;SDS011;10193;48.884;9.182;2023-02-11T07:50:31;17.17;;;13.83;;
20065;SDS011;10193;48.884;9.182;2023-02-11T07:52:58;16.37;;;13.47;;
20065;SDS011;10193;48.884;9.182;2023-02-11T07:55:25;16.87;;;14.40;;
20065;SDS011;10193;48.884;9.182;2023-02-11T07:57:51;15.37;;;13.50;;
20065;SDS011;10193;48.884;9.182;2023-02-11T08:00:18;15.23;;;13.40;;
20065;SDS011;10193;48.884;9.182;2023-02-11T08:02:45;16.63;;;13.60;;
20065;SDS011;10193;48.884;9.182;2023-02-11T08:05:11;15.27;;;13.47;;
20065;SDS011;10193;48.884;9.182;2023-02-11T08:07:39;18.57;;;14.10;;
20065;SDS011;10193;48.884;9.182;2023-02-11T08:10:06;16.67;;;14.10;;
20065;SDS011;10193;48.884;9.182;2023-02-11T08:12:33;15.90;;;13.33;;
20065;SDS011;10193;48.884;9.182;2023-02-11T08:15:00;16.00;;;13.73;;
20065;SDS011;10193;48.884;9.182;2023-02-11T08:17:26;17.40;;;14.60;;
20065;SDS011;10193;48.884;9.182;2023-02-11T08:19:53;17.43;;;14.37;;
20065;SDS011;10193;48.884;9.182;2023-02-11T08:22:20;15.27;;;13.53;;
20065;SDS011;10193;48.884;9.182;2023-02-11T08:24:48;16.70;;;13.87;;
20065;SDS011;10193;48.884;9.182;2023-02-11T08:27:15;14.97;;;13.33;;
20065;SDS011;10193;48.884;9.182;2023-02-11T08:29:41;15.33;;;13.67;;
20065;SDS011;10193;48.884;9.182;2023-02-11T08:32:08;15.93;;;13.57;;
20065;SDS011;10193;48.884;9.182;2023-02-11T08:34:35;16.50;;;13.13;;
20065;SDS011;10193;48.884;9.182;2023-02-11T08:37:01;15.37;;;13.33;;
20065;SDS011;10193;48.884;9.182;2023-02-11T08:39:28;15.77;;;13.80;;
20065;SDS011;10193;48.884;9.182;2023-02-11T08:41:56;15.87;;;14.17;;
20065;SDS011;10193;48.884;9.182;2023-02-11T08:44:23;16.30;;;14.13;;
20065;SDS011;10193;48.884;9.182;2023-02-11T08:46:50;16.50;;;14.37;;
20065;SDS011;10193;48.884;9.182;2023-02-11T08:49:17;15.87;;;14.17;;
20065;SDS011;10193;48.884;9.182;2023-02-11T08:51:44;16.57;;;14.27;;
20065;SDS011;10193;48.884;9.182;2023-02-11T08:54:11;14.90;;;13.30;;
20065;SDS011;10193;48.884;9.182;2023-02-11T08:56:39;15.90;;;14.20;;
20065;SDS011;10193;48.884;9.182;2023-02-11T08:59:07;15.60;;;13.43;;
20065;SDS011;10193;48.884;9.182;2023-02-11T09:01:36;17.07;;;14.53;;
20065;SDS011;10193;48.884;9.182;2023-02-11T09:04:02;18.33;;;14.97;;
20065;SDS011;10193;48.884;9.182;2023-02-11T09:06:29;15.93;;;14.07;;
20065;SDS011;10193;48.884;9.182;2023-02-11T09:08:57;18.13;;;14.67;;
20065;SDS011;10193;48.884;9.182;2023-02-11T09:11:25;18.00;;;14.97;;
20065;SDS011;10193;48.884;9.182;2023-02-11T09:13:53;17.17;;;14.90;;
20065;SDS011;10193;48.884;9.182;2023-02-11T09:16:22;19.10;;;15.73;;
20065;SDS011;10193;48.884;9.182;2023-02-11T09:18:51;17.98;;;15.35;;
20065;SDS011;10193;48.884;9.182;2023-02-11T09:21:18;17.67;;;15.20;;
20065;SDS011;10193;48.884;9.182;2023-02-11T09:23:52;16.40;;;14.70;;
20065;SDS011;10193;48.884;9.182;2023-02-11T09:26:20;21.63;;;17.03;;
20065;SDS011;10193;48.884;9.182;2023-02-11T09:28:48;22.27;;;17.90;;
20065;SDS011;10193;48.884;9.182;2023-02-11T09:31:16;19.70;;;17.03;;
20065;SDS011;10193;48.884;9.182;2023-02-11T09:33:47;16.33;;;14.53;;
20065;SDS011;10193;48.884;9.182;2023-02-11T09:36:16;15.90;;;13.90;;
20065;SDS011;10193;48.884;9.182;2023-02-11T09:38:44;15.40;;;12.90;;
20065;SDS011;10193;48.884;9.182;2023-02-11T09:41:16;14.37;;;12.87;;
20065;SDS011;10193;48.884;9.182;2023-02-11T09:43:57;15.02;;;12.75;;
20065;SDS011;10193;48.884;9.182;2023-02-11T09:46:29;16.47;;;12.83;;
20065;SDS011;10193;48.884;9.182;2023-02-11T09:48:59;18.20;;;14.70;;
20065;SDS011;10193;48.884;9.182;2023-02-11T09:51:28;17.33;;;14.43;;
20065;SDS011;10193;48.884;9.182;2023-02-11T09:54:02;17.40;;;14.32;;
20065;SDS011;10193;48.884;9.182;2023-02-11T09:56:36;23.05;;;18.05;;
20065;SDS011;10193;48.884;9.182;2023-02-11T09:59:03;18.97;;;16.37;;
20065;SDS011;10193;48.884;9.182;2023-02-11T10:01:33;17.65;;;14.63;;
20065;SDS011;10193;48.884;9.182;2023-02-11T10:04:09;18.00;;;14.00;;
20065;SDS011;10193;48.884;9.182;2023-02-11T10:06:42;16.08;;;14.25;;
20065;SDS011;10193;48.884;9.182;2023-02-11T10:09:15;14.63;;;12.80;;
20065;SDS011;10193;48.884;9.182;2023-02-11T10:11:54;14.45;;;12.70;;
20065;SDS011;10193;48.884;9.182;2023-02-11T10:14:37;14.05;;;11.80;;
20065;SDS011;10193;48.884;9.182;2023-02-11T10:17:16;11.73;;;10.52;;
20065;SDS011;10193;48.884;9.182;2023-02-11T10:19:58;11.88;;;9.80;;
20065;SDS011;10193;48.884;9.182;2023-02-11T10:22:32;12.45;;;9.88;;
20065;SDS011;10193;48.884;9.182;2023-02-11T10:25:07;10.23;;;9.17;;
20065;SDS011;10193;48.884;9.182;2023-02-11T10:27:44;9.57;;;8.57;;
20065;SDS011;10193;48.884;9.182;2023-02-11T10:30:15;9.35;;;8.35;;
20065;SDS011;10193;48.884;9.182;2023-02-11T10:32:47;8.68;;;7.00;;
20065;SDS011;10193;48.884;9.182;2023-02-11T10:35:19;9.65;;;7.45;;
20065;SDS011;10193;48.884;9.182;2023-02-11T10:37:47;7.70;;;6.90;;
20065;SDS011;10193;48.884;9.182;2023-02-11T10:40:14;6.68;;;5.97;;
20065;SDS011;10193;48.884;9.182;2023-02-11T10:42:43;6.55;;;5.95;;
20065;SDS011;10193;48.884;9.182;2023-02-11T10:45:15;7.53;;;6.40;;
20065;SDS011;10193;48.884;9.182;2023-02-11T10:47:46;6.87;;;5.93;;
20065;SDS011;10193;48.884;9.182;2023-02-11T10:50:17;6.75;;;6.05;;
20065;SDS011;10193;48.884;9.182;2023-02-11T10:52:47;6.90;;;6.20;;
20065;SDS011;10193;48.884;9.182;2023-02-11T10:55:15;6.75;;;6.05;;
20065;SDS011;10193;48.884;9.182;2023-02-11T10:57:49;6.85;;;6.15;;
20065;SDS011;10193;48.884;9.182;2023-02-11T11:00:25;6.43;;;5.82;;
20065;SDS011;10193;48.884;9.182;2023-02-11T11:03:00;6.53;;;5.82;;
20065;SDS011;10193;48.884;9.182;2023-02-11T11:05:31;6.65;;;5.47;;
20065;SDS011;10193;48.884;9.182;2023-02-11T11:08:01;6.85;;;5.85;;
20065;SDS011;10193;48.884;9.182;2023-02-11T11:10:36;6.97;;;6.28;;
20065;SDS011;10193;48.884;9.182;2023-02-11T11:13:22;6.60;;;5.90;;
20065;SDS011;10193;48.884;9.182;2023-02-11T11:16:05;6.78;;;6.00;;
20065;SDS011;10193;48.884;9.182;2023-02-11T11:18:48;6.78;;;5.70;;
20065;SDS011;10193;48.884;9.182;2023-02-11T11:21:19;7.07;;;6.28;;
20065;SDS011;10193;48.884;9.182;2023-02-11T11:23:50;6.93;;;6.10;;
20065;SDS011;10193;48.884;9.182;2023-02-11T11:26:20;8.32;;;7.03;;
20065;SDS011;10193;48.884;9.182;2023-02-11T11:28:57;7.40;;;6.63;;
20065;SDS011;10193;48.884;9.182;2023-02-11T11:31:27;7.95;;;6.82;;
20065;SDS011;10193;48.884;9.182;2023-02-11T11:33:57;7.63;;;6.72;;
20065;SDS011;10193;48.884;9.182;2023-02-11T11:36:31;7.35;;;6.60;;
20065;SDS011;10193;48.884;9.182;2023-02-11T11:39:01;8.82;;;7.30;;
20065;SDS011;10193;48.884;9.182;2023-02-11T11:41:46;8.70;;;7.50;;
20065;SDS011;10193;48.884;9.182;2023-02-11T11:44:18;9.15;;;8.10;;
20065;SDS011;10193;48.884;9.182;2023-02-11T11:46:52;8.07;;;7.15;;
20065;SDS011;10193;48.884;9.182;2023-02-11T11:49:32;8.70;;;7.38;;
20065;SDS011;10193;48.884;9.182;2023-02-11T11:52:08;8.95;;;7.60;;
20065;SDS011;10193;48.884;9.182;2023-02-11T11:54:46;8.35;;;7.13;;
20065;SDS011;10193;48.884;9.182;2023-02-11T11:57:19;9.20;;;6.78;;
20065;SDS011;10193;48.884;9.182;2023-02-11T11:59:51;7.32;;;6.63;;
20065;SDS011;10193;48.884;9.182;2023-02-11T12:02:34;7.30;;;6.55;;
20065;SDS011;10193;48.884;9.182;2023-02-11T12:05:24;6.72;;;6.10;;
20065;SDS011;10193;48.884;9.182;2023-02-11T12:08:02;7.57;;;6.82;;
20065;SDS011;10193;48.884;9.182;2023-02-11T12:10:42;7.32;;;6.60;;
20065;SDS011;10193;48.884;9.182;2023-02-11T12:13:22;8.57;;;7.00;;
20065;SDS011;10193;48.884;9.182;2023-02-11T12:16:05;8.02;;;6.75;;
20065;SDS011;10193;48.884;9.182;2023-02-11T12:21:36;7.57;;;6.78;;
20065;SDS011;10193;48.884;9.182;2023-02-11T12:24:17;9.05;;;7.07;;
20065;SDS011;10193;48.884;9.182;2023-02-11T12:26:56;9.23;;;8.00;;
20065;SDS011;10193;48.884;9.182;2023-02-11T12:29:31;8.38;;;7.50;;
20065;SDS011;10193;48.884;9.182;2023-02-11T12:32:08;8.75;;;7.72;;
20065;SDS011;10193;48.884;9.182;2023-02-11T12:34:52;8.93;;;8.00;;
20065;SDS011;10193;48.884;9.182;2023-02-11T12:37:40;9.13;;;7.90;;
20065;SDS011;10193;48.884;9.182;2023-02-11T12:40:17;9.32;;;8.32;;
20065;SDS011;10193;48.884;9.182;2023-02-11T12:42:56;11.13;;;8.98;;
20065;SDS011;10193;48.884;9.182;2023-02-11T12:45:48;10.25;;;9.13;;
20065;SDS011;10193;48.884;9.182;2023-02-11T12:48:38;10.55;;;9.32;;
20065;SDS011;10193;48.884;9.182;2023-02-11T12:51:27;10.18;;;8.98;;
20065;SDS011;10193;48.884;9.182;2023-02-11T12:54:10;9.98;;;8.80;;
20065;SDS011;10193;48.884;9.182;2023-02-11T12:56:45;12.02;;;9.82;;
20065;SDS011;10193;48.884;9.182;2023-02-11T12:59:19;11.60;;;10.20;;
20065;SDS011;10193;48.884;9.182;2023-02-11T13:01:58;12.90;;;11.10;;
20065;SDS011;10193;48.884;9.182;2023-02-11T13:04:31;11.82;;;10.27;;
20065;SDS011;10193;48.884;9.182;2023-02-11T13:07:03;11.27;;;10.05;;
20065;SDS011;10193;48.884;9.182;2023-02-11T13:09:47;10.82;;;9.73;;
20065;SDS011;10193;48.884;9.182;2023-02-11T13:12:17;11.57;;;10.35;;
20065;SDS011;10193;48.884;9.182;2023-02-11T13:15:02;11.10;;;10.00;;
20065;SDS011;10193;48.884;9.182;2023-02-11T13:17:35;11.35;;;10.18;;
20065;SDS011;10193;48.884;9.182;2023-02-11T13:20:13;10.63;;;9.52;;
20065;SDS011;10193;48.884;9.182;2023-02-11T13:22:49;10.73;;;9.68;;
20065;SDS011;10193;48.884;9.182;2023-02-11T13:25:24;10.95;;;9.85;;
20065;SDS011;10193;48.884;9.182;2023-02-11T13:28:00;10.98;;;9.35;;
20065;SDS011;10193;48.884;9.182;2023-02-11T13:30:36;11.82;;;9.50;;
20065;SDS011;10193;48.884;9.182;2023-02-11T13:33:18;11.68;;;10.43;;
20065;SDS011;10193;48.884;9.182;2023-02-11T13:38:49;11.48;;;10.27;;
20065;SDS011;10193;48.884;9.182;2023-02-11T13:41:22;10.60;;;9.48;;
20065;SDS011;10193;48.884;9.182;2023-02-11T13:43:57;11.93;;;10.73;;
20065;SDS011;10193;48.884;9.182;2023-02-11T13:46:27;11.00;;;9.90;;
20065;SDS011;10193;48.884;9.182;2023-02-11T13:49:16;11.23;;;10.10;;
20065;SDS011;10193;48.884;9.182;2023-02-11T13:51:44;11.48;;;10.27;;
20065;SDS011;10193;48.884;9.182;2023-02-11T13:54:17;11.05;;;9.95;;
20065;SDS011;10193;48.884;9.182;2023-02-11T14:00:41;10.90;;;9.65;;
20065;SDS011;10193;48.884;9.182;2023-02-11T14:03:21;12.65;;;11.00;;
20065;SDS011;10193;48.884;9.182;2023-02-11T14:06:14;12.80;;;11.43;;
20065;SDS011;10193;48.884;9.182;2023-02-11T14:09:08;11.07;;;9.98;;
20065;SDS011;10193;48.884;9.182;2023-02-11T14:11:50;11.30;;;10.10;;
20065;SDS011;10193;48.884;9.182;2023-02-11T14:14:20;12.05;;;10.50;;
20065;SDS011;10193;48.884;9.182;2023-02-11T14:20:00;10.32;;;9.23;;
20065;SDS011;10193;48.884;9.182;2023-02-11T14:22:29;11.25;;;9.95;;
20065;SDS011;10193;48.884;9.182;2023-02-11T14:25:11;11.27;;;10.07;;
20065;SDS011;10193;48.884;9.182;2023-02-11T14:27:45;10.77;;;9.63;;
20065;SDS011;10193;48.884;9.182;2023-02-11T14:30:22;11.40;;;10.30;;
20065;SDS011;10193;48.884;9.182;2023-02-11T14:36:18;10.45;;;9.43;;
20065;SDS011;10193;48.884;9.182;2023-02-11T14:39:01;10.52;;;9.52;;
20065;SDS011;10193;48.884;9.182;2023-02-11T14:41:37;11.07;;;9.88;;
20065;SDS011;10193;48.884;9.182;2023-02-11T14:44:07;9.75;;;8.85;;
20065;SDS011;10193;48.884;9.182;2023-02-11T14:46:42;9.70;;;8.80;;
20065;SDS011;10193;48.884;9.182;2023-02-11T14:49:12;10.07;;;9.07;;
20065;SDS011;10193;48.884;9.182;2023-02-11T14:51:45;10.25;;;8.80;;
20065;SDS011;10193;48.884;9.182;2023-02-11T14:54:13;10.30;;;9.35;;
20065;SDS011;10193;48.884;9.182;2023-02-11T14:56:42;10.20;;;9.20;;
20065;SDS011;10193;48.884;9.182;2023-02-11T14:59:15;10.02;;;9.02;;
20065;SDS011;10193;48.884;9.182;2023-02-11T15:01:44;9.80;;;8.90;;
20065;SDS011;10193;48.884;9.182;2023-02-11T15:04:22;9.90;;;8.98;;